sensor_id;sensor_type;location;lat;lon;timestamp;pressure;altitude;pressure_sealevel;temperature;humidity
30897;BME280;64229;52.246;21.054;2023-05-22T00:01:31;100995.88;;;13.92;66.61
30897;BME280;64229;52.246;21.054;2023-05-22T00:03:57;101033.72;;;14.10;67.03
30897;BME280;64229;52.246;21.054;2023-05-22T00:06:22;101027.00;;;14.08;66.80
30897;BME280;64229;52.246;21.054;2023-05-22T00:08:48;101022.19;;;14.05;66.83
30897;BME280;64229;52.246;21.054;2023-05-22T00:11:13;101022.44;;;14.03;67.34
30897;BME280;64229;52.246;21.054;2023-05-22T00:13:39;100998.03;;;13.89;67.10
30897;BME280;64229;52.246;21.054;2023-05-22T00:16:05;101023.25;;;13.99;67.35
30897;BME280;64229;52.246;21.054;2023-05-22T00:18:30;101010.91;;;13.93;67.67
30897;BME280;64229;52.246;21.054;2023-05-22T00:20:56;101015.75;;;13.96;67.67
30897;BME280;64229;52.246;21.054;2023-05-22T00:23:24;101023.50;;;13.92;67.71
30897;BME280;64229;52.246;21.054;2023-05-22T00:25:50;100987.03;;;13.76;68.16
30897;BME280;64229;52.246;21.054;2023-05-22T00:28:15;101022.19;;;13.89;68.58
30897;BME280;64229;52.246;21.054;2023-05-22T00:30:40;101016.56;;;13.86;69.30
30897;BME280;64229;52.246;21.054;2023-05-22T00:33:06;101017.91;;;13.83;70.01
30897;BME280;64229;52.246;21.054;2023-05-22T00:35:31;100999.09;;;13.68;70.44
30897;BME280;64229;52.246;21.054;2023-05-22T00:37:57;101021.66;;;13.77;70.72
30897;BME280;64229;52.246;21.054;2023-05-22T00:40:22;101026.47;;;13.75;71.25
30897;BME280;64229;52.246;21.054;2023-05-22T00:42:48;101020.03;;;13.71;71.25
30897;BME280;64229;52.246;21.054;2023-05-22T00:45:13;101015.72;;;13.70;72.04
30897;BME280;64229;52.246;21.054;2023-05-22T00:47:39;101004.19;;;13.59;72.86
30897;BME280;64229;52.246;21.054;2023-05-22T00:50:05;101027.25;;;13.60;73.36
30897;BME280;64229;52.246;21.054;2023-05-22T00:52:33;101018.41;;;13.55;73.36
30897;BME280;64229;52.246;21.054;2023-05-22T00:54:59;101018.16;;;13.51;73.80
30897;BME280;64229;52.246;21.054;2023-05-22T00:57:25;101021.06;;;13.50;73.83
30897;BME280;64229;52.246;21.054;2023-05-22T00:59:51;101014.09;;;13.49;73.75
30897;BME280;64229;52.246;21.054;2023-05-22T01:02:16;101018.13;;;13.46;73.32
30897;BME280;64229;52.246;21.054;2023-05-22T01:04:46;101015.44;;;13.46;73.24
30897;BME280;64229;52.246;21.054;2023-05-22T01:07:15;101021.88;;;13.45;72.80
30897;BME280;64229;52.246;21.054;2023-05-22T01:09:43;101015.19;;;13.43;72.97
30897;BME280;64229;52.246;21.054;2023-05-22T01:12:26;101020.53;;;13.43;73.00
30897;BME280;64229;52.246;21.054;2023-05-22T01:22:33;101018.38;;;13.40;72.92
30897;BME280;64229;52.246;21.054;2023-05-22T01:27:47;101014.63;;;13.36;72.89
30897;BME280;64229;52.246;21.054;2023-05-22T01:30:47;101021.31;;;13.33;72.98
30897;BME280;64229;52.246;21.054;2023-05-22T01:33:14;101025.34;;;13.30;73.31
30897;BME280;64229;52.246;21.054;2023-05-22T01:35:44;101017.53;;;13.29;73.84
30897;BME280;64229;52.246;21.054;2023-05-22T01:38:11;101021.56;;;13.26;73.92
30897;BME280;64229;52.246;21.054;2023-05-22T01:40:37;101011.38;;;13.23;74.33
30897;BME280;64229;52.246;21.054;2023-05-22T01:43:02;101020.44;;;13.17;74.48
30897;BME280;64229;52.246;21.054;2023-05-22T01:45:28;101023.38;;;13.16;74.35
30897;BME280;64229;52.246;21.054;2023-05-22T01:47:56;101019.38;;;13.13;74.47
30897;BME280;64229;52.246;21.054;2023-05-22T01:50:21;101013.44;;;13.06;74.72
30897;BME280;64229;52.246;21.054;2023-05-22T01:52:51;101022.03;;;13.08;74.61
30897;BME280;64229;52.246;21.054;2023-05-22T01:55:23;101019.59;;;13.07;74.62
30897;BME280;64229;52.246;21.054;2023-05-22T01:57:59;101020.13;;;13.03;74.68
30897;BME280;64229;52.246;21.054;2023-05-22T02:00:27;101015.31;;;13.00;75.04
30897;BME280;64229;52.246;21.054;2023-05-22T02:02:57;101019.88;;;13.00;75.48
30897;BME280;64229;52.246;21.054;2023-05-22T02:05:25;101024.13;;;12.96;76.46
30897;BME280;64229;52.246;21.054;2023-05-22T02:07:55;101024.38;;;12.94;76.77
30897;BME280;64229;52.246;21.054;2023-05-22T02:10:24;101023.03;;;12.92;77.25
30897;BME280;64229;52.246;21.054;2023-05-22T02:12:52;101022.19;;;12.86;77.54
30897;BME280;64229;52.246;21.054;2023-05-22T02:15:18;101026.75;;;12.86;78.01
30897;BME280;64229;52.246;21.054;2023-05-22T02:17:43;101031.03;;;12.82;78.27
30897;BME280;64229;52.246;21.054;2023-05-22T02:20:10;101024.88;;;12.76;78.49
30897;BME280;64229;52.246;21.054;2023-05-22T02:22:40;101037.16;;;12.72;78.73
30897;BME280;64229;52.246;21.054;2023-05-22T02:25:06;101030.44;;;12.69;78.53
30897;BME280;64229;52.246;21.054;2023-05-22T02:27:35;101017.53;;;12.56;78.57
30897;BME280;64229;52.246;21.054;2023-05-22T02:30:01;101026.91;;;12.64;78.55
30897;BME280;64229;52.246;21.054;2023-05-22T02:32:26;101034.69;;;12.60;78.34
30897;BME280;64229;52.246;21.054;2023-05-22T02:34:52;101017.22;;;12.53;78.00
30897;BME280;64229;52.246;21.054;2023-05-22T02:37:17;101026.38;;;12.57;77.48
30897;BME280;64229;52.246;21.054;2023-05-22T02:39:43;101014.28;;;12.54;77.17
30897;BME280;64229;52.246;21.054;2023-05-22T02:42:08;101010.53;;;12.50;76.65
30897;BME280;64229;52.246;21.054;2023-05-22T02:44:33;101016.69;;;12.51;76.51
30897;BME280;64229;52.246;21.054;2023-05-22T02:46:59;101012.66;;;12.48;76.67
30897;BME280;64229;52.246;21.054;2023-05-22T02:49:24;101015.88;;;12.45;76.50
30897;BME280;64229;52.246;21.054;2023-05-22T02:51:50;101013.41;;;12.43;76.39
30897;BME280;64229;52.246;21.054;2023-05-22T02:54:15;100998.38;;;12.32;76.48
30897;BME280;64229;52.246;21.054;2023-05-22T02:56:43;100999.44;;;12.31;76.41
30897;BME280;64229;52.246;21.054;2023-05-22T02:59:09;100986.31;;;12.25;76.54
30897;BME280;64229;52.246;21.054;2023-05-22T03:01:34;100997.81;;;12.30;76.76
30897;BME280;64229;52.246;21.054;2023-05-22T03:04:00;100997.56;;;12.32;77.04
30897;BME280;64229;52.246;21.054;2023-05-22T03:06:25;100996.50;;;12.33;77.27
30897;BME280;64229;52.246;21.054;2023-05-22T03:08:51;101006.41;;;12.32;77.16
30897;BME280;64229;52.246;21.054;2023-05-22T03:11:17;101002.09;;;12.31;77.30
30897;BME280;64229;52.246;21.054;2023-05-22T03:13:42;100992.19;;;12.27;77.27
30897;BME280;64229;52.246;21.054;2023-05-22T03:16:07;101001.03;;;12.27;77.13
30897;BME280;64229;52.246;21.054;2023-05-22T03:18:33;101004.50;;;12.28;77.19
30897;BME280;64229;52.246;21.054;2023-05-22T03:21:00;100996.75;;;12.26;77.17
30897;BME280;64229;52.246;21.054;2023-05-22T03:23:25;101002.63;;;12.28;77.11
30897;BME280;64229;52.246;21.054;2023-05-22T03:25:50;100998.91;;;12.29;76.99
30897;BME280;64229;52.246;21.054;2023-05-22T03:28:16;101000.25;;;12.32;76.92
30897;BME280;64229;52.246;21.054;2023-05-22T03:30:41;100993.81;;;12.28;76.75
30897;BME280;64229;52.246;21.054;2023-05-22T03:33:07;101007.19;;;12.33;76.87
30897;BME280;64229;52.246;21.054;2023-05-22T03:35:32;101010.94;;;12.32;76.34
30897;BME280;64229;52.246;21.054;2023-05-22T03:37:57;100998.06;;;12.24;76.40
30897;BME280;64229;52.246;21.054;2023-05-22T03:40:23;101005.56;;;12.27;76.48
30897;BME280;64229;52.246;21.054;2023-05-22T03:42:48;100954.00;;;11.94;76.43
30897;BME280;64229;52.246;21.054;2023-05-22T03:45:14;101008.78;;;12.29;76.35
30897;BME280;64229;52.246;21.054;2023-05-22T03:47:39;100999.16;;;12.28;76.32
30897;BME280;64229;52.246;21.054;2023-05-22T03:50:05;101013.09;;;12.30;76.29
30897;BME280;64229;52.246;21.054;2023-05-22T03:52:30;100995.09;;;12.20;76.41
30897;BME280;64229;52.246;21.054;2023-05-22T03:54:56;101007.19;;;12.33;75.73
30897;BME280;64229;52.246;21.054;2023-05-22T03:57:21;101001.28;;;12.26;75.34
30897;BME280;64229;52.246;21.054;2023-05-22T03:59:46;101013.09;;;12.30;75.33
30897;BME280;64229;52.246;21.054;2023-05-22T04:02:12;101013.09;;;12.30;75.39
30897;BME280;64229;52.246;21.054;2023-05-22T04:04:41;101009.34;;;12.31;75.10
30897;BME280;64229;52.246;21.054;2023-05-22T04:07:06;101011.75;;;12.32;75.08
30897;BME280;64229;52.246;21.054;2023-05-22T04:09:34;101003.72;;;12.32;74.85
30897;BME280;64229;52.246;21.054;2023-05-22T04:12:00;101007.78;;;12.35;74.88
30897;BME280;64229;52.246;21.054;2023-05-22T04:14:26;101008.56;;;12.35;74.72
30897;BME280;64229;52.246;21.054;2023-05-22T04:16:51;101001.91;;;12.38;74.87
30897;BME280;64229;52.246;21.054;2023-05-22T04:19:17;101004.59;;;12.43;74.56
30897;BME280;64229;52.246;21.054;2023-05-22T04:21:42;101004.09;;;12.46;74.85
30897;BME280;64229;52.246;21.054;2023-05-22T04:24:08;100973.19;;;12.28;74.88
30897;BME280;64229;52.246;21.054;2023-05-22T04:26:35;100999.06;;;12.55;74.83
30897;BME280;64229;52.246;21.054;2023-05-22T04:29:02;100983.75;;;12.50;74.61
30897;BME280;64229;52.246;21.054;2023-05-22T04:31:28;100992.69;;;12.66;74.82
30897;BME280;64229;52.246;21.054;2023-05-22T04:33:54;100991.63;;;12.72;74.58
30897;BME280;64229;52.246;21.054;2023-05-22T04:36:20;101000.75;;;12.76;74.55
30897;BME280;64229;52.246;21.054;2023-05-22T04:38:50;100990.03;;;12.81;74.71
30897;BME280;64229;52.246;21.054;2023-05-22T04:41:15;100960.81;;;12.69;74.39
30897;BME280;64229;52.246;21.054;2023-05-22T04:43:42;100985.25;;;12.93;74.01
30897;BME280;64229;52.246;21.054;2023-05-22T04:46:08;100986.91;;;12.99;73.65
30897;BME280;64229;52.246;21.054;2023-05-22T04:48:33;100982.34;;;13.05;73.61
30897;BME280;64229;52.246;21.054;2023-05-22T04:50:59;100988.81;;;13.14;73.48
30897;BME280;64229;52.246;21.054;2023-05-22T04:53:26;100987.25;;;13.23;72.98
30897;BME280;64229;52.246;21.054;2023-05-22T04:55:53;100988.06;;;13.29;72.37
30897;BME280;64229;52.246;21.054;2023-05-22T04:58:18;100983.78;;;13.33;72.03
30897;BME280;64229;52.246;21.054;2023-05-22T05:00:43;100994.00;;;13.41;71.64
30897;BME280;64229;52.246;21.054;2023-05-22T05:03:09;100981.66;;;13.45;71.36
30897;BME280;64229;52.246;21.054;2023-05-22T05:05:35;100988.63;;;13.56;71.04
30897;BME280;64229;52.246;21.054;2023-05-22T05:08:01;100990.00;;;13.64;70.28
30897;BME280;64229;52.246;21.054;2023-05-22T05:10:26;100986.50;;;13.74;69.93
30897;BME280;64229;52.246;21.054;2023-05-22T05:12:52;100983.81;;;13.89;69.01
30897;BME280;64229;52.246;21.054;2023-05-22T05:15:17;100995.34;;;14.05;68.91
30897;BME280;64229;52.246;21.054;2023-05-22T05:17:42;100996.66;;;14.23;68.06
30897;BME280;64229;52.246;21.054;2023-05-22T05:20:08;100992.59;;;14.35;67.48
30897;BME280;64229;52.246;21.054;2023-05-22T05:22:34;100987.22;;;14.51;67.07
30897;BME280;64229;52.246;21.054;2023-05-22T05:25:00;100975.13;;;14.53;66.14
30897;BME280;64229;52.246;21.054;2023-05-22T05:27:25;101003.22;;;14.81;65.89
30897;BME280;64229;52.246;21.054;2023-05-22T05:29:51;100992.16;;;14.93;65.26
30897;BME280;64229;52.246;21.054;2023-05-22T05:32:16;100997.16;;;15.10;64.98
30897;BME280;64229;52.246;21.054;2023-05-22T05:34:41;100996.84;;;15.21;63.86
30897;BME280;64229;52.246;21.054;2023-05-22T05:37:07;100982.00;;;15.29;63.36
30897;BME280;64229;52.246;21.054;2023-05-22T05:39:33;100996.94;;;15.45;62.77
30897;BME280;64229;52.246;21.054;2023-05-22T05:41:58;100991.50;;;15.55;61.68
30897;BME280;64229;52.246;21.054;2023-05-22T05:44:24;100992.78;;;15.68;61.00
30897;BME280;64229;52.246;21.054;2023-05-22T05:46:49;100989.19;;;15.78;60.02
30897;BME280;64229;52.246;21.054;2023-05-22T05:49:15;100985.34;;;15.89;59.64
30897;BME280;64229;52.246;21.054;2023-05-22T05:51:40;100998.31;;;16.11;58.98
30897;BME280;64229;52.246;21.054;2023-05-22T05:54:05;100978.16;;;16.08;58.61
30897;BME280;64229;52.246;21.054;2023-05-22T05:56:31;101000.00;;;16.31;57.83
30897;BME280;64229;52.246;21.054;2023-05-22T05:58:56;100989.41;;;16.39;57.78
30897;BME280;64229;52.246;21.054;2023-05-22T06:01:23;100993.34;;;16.47;58.04
30897;BME280;64229;52.246;21.054;2023-05-22T06:03:49;101000.22;;;16.58;58.21
30897;BME280;64229;52.246;21.054;2023-05-22T06:06:15;100988.38;;;16.59;57.54
30897;BME280;64229;52.246;21.054;2023-05-22T06:08:42;100996.41;;;16.64;57.66
30897;BME280;64229;52.246;21.054;2023-05-22T06:11:07;100991.00;;;16.64;58.10
30897;BME280;64229;52.246;21.054;2023-05-22T06:13:33;100997.44;;;16.68;58.45
30897;BME280;64229;52.246;21.054;2023-05-22T06:15:58;100986.94;;;16.67;57.93
30897;BME280;64229;52.246;21.054;2023-05-22T06:18:23;100990.41;;;16.67;57.39
30897;BME280;64229;52.246;21.054;2023-05-22T06:20:50;100992.00;;;16.73;56.88
30897;BME280;64229;52.246;21.054;2023-05-22T06:23:15;100987.06;;;16.81;56.70
30897;BME280;64229;52.246;21.054;2023-05-22T06:25:41;100978.69;;;16.82;56.38
30897;BME280;64229;52.246;21.054;2023-05-22T06:28:07;100984.25;;;16.91;55.86
30897;BME280;64229;52.246;21.054;2023-05-22T06:30:32;100978.47;;;16.97;53.90
30897;BME280;64229;52.246;21.054;2023-05-22T06:32:58;100978.34;;;17.08;54.10
30897;BME280;64229;52.246;21.054;2023-05-22T06:35:23;100976.59;;;17.17;53.69
30897;BME280;64229;52.246;21.054;2023-05-22T06:37:49;100983.75;;;17.26;52.32
30897;BME280;64229;52.246;21.054;2023-05-22T06:40:14;100933.81;;;17.10;50.67
30897;BME280;64229;52.246;21.054;2023-05-22T06:42:41;100965.66;;;17.46;51.15
30897;BME280;64229;52.246;21.054;2023-05-22T06:45:07;100981.09;;;17.59;51.10
30897;BME280;64229;52.246;21.054;2023-05-22T06:47:33;100977.41;;;17.69;51.18
30897;BME280;64229;52.246;21.054;2023-05-22T06:49:58;100963.56;;;17.75;51.48
30897;BME280;64229;52.246;21.054;2023-05-22T06:52:23;100961.28;;;17.82;49.67
30897;BME280;64229;52.246;21.054;2023-05-22T06:54:49;100964.72;;;18.02;49.79
30897;BME280;64229;52.246;21.054;2023-05-22T06:57:14;100973.34;;;18.17;49.54
30897;BME280;64229;52.246;21.054;2023-05-22T06:59:39;100973.88;;;18.33;49.03
30897;BME280;64229;52.246;21.054;2023-05-22T07:02:05;100976.06;;;18.45;48.94
30897;BME280;64229;52.246;21.054;2023-05-22T07:04:30;100974.16;;;18.59;47.94
30897;BME280;64229;52.246;21.054;2023-05-22T07:06:55;100978.19;;;18.75;47.98
30897;BME280;64229;52.246;21.054;2023-05-22T07:09:21;100977.03;;;18.90;45.12
30897;BME280;64229;52.246;21.054;2023-05-22T07:11:46;100970.09;;;19.12;45.22
30897;BME280;64229;52.246;21.054;2023-05-22T07:14:12;100968.09;;;19.40;42.35
30897;BME280;64229;52.246;21.054;2023-05-22T07:16:39;100971.50;;;20.30;41.71
30897;BME280;64229;52.246;21.054;2023-05-22T07:19:04;100964.28;;;23.54;36.37
30897;BME280;64229;52.246;21.054;2023-05-22T07:21:30;100965.69;;;27.24;30.05
30897;BME280;64229;52.246;21.054;2023-05-22T07:23:56;100972.25;;;29.77;24.41
30897;BME280;64229;52.246;21.054;2023-05-22T07:26:22;100965.03;;;31.34;22.66
30897;BME280;64229;52.246;21.054;2023-05-22T07:28:47;100980.53;;;32.56;21.08
30897;BME280;64229;52.246;21.054;2023-05-22T07:31:13;100967.94;;;33.46;20.00
30897;BME280;64229;52.246;21.054;2023-05-22T07:33:38;100977.56;;;34.35;19.06
30897;BME280;64229;52.246;21.054;2023-05-22T07:36:04;100972.31;;;35.46;19.00
30897;BME280;64229;52.246;21.054;2023-05-22T07:38:29;100963.59;;;36.45;18.45
30897;BME280;64229;52.246;21.054;2023-05-22T07:40:55;100966.78;;;37.23;16.53
30897;BME280;64229;52.246;21.054;2023-05-22T07:43:20;100965.59;;;37.76;16.03
30897;BME280;64229;52.246;21.054;2023-05-22T07:45:46;100963.09;;;38.27;15.38
30897;BME280;64229;52.246;21.054;2023-05-22T07:48:11;100966.16;;;38.33;14.91
30897;BME280;64229;52.246;21.054;2023-05-22T07:50:36;100919.28;;;38.28;15.01
30897;BME280;64229;52.246;21.054;2023-05-22T07:53:02;100958.91;;;38.35;14.37
30897;BME280;64229;52.246;21.054;2023-05-22T07:55:28;100955.81;;;38.46;14.61
30897;BME280;64229;52.246;21.054;2023-05-22T07:57:54;100959.88;;;38.99;14.58
30897;BME280;64229;52.246;21.054;2023-05-22T08:00:20;100956.03;;;39.48;15.28
30897;BME280;64229;52.246;21.054;2023-05-22T08:02:46;100951.72;;;39.94;13.80
30897;BME280;64229;52.246;21.054;2023-05-22T08:05:11;100945.44;;;40.37;14.56
30897;BME280;64229;52.246;21.054;2023-05-22T08:07:36;100946.16;;;40.29;14.11
30897;BME280;64229;52.246;21.054;2023-05-22T08:10:05;100955.91;;;39.64;14.71
30897;BME280;64229;52.246;21.054;2023-05-22T08:12:31;100949.88;;;38.60;14.70
30897;BME280;64229;52.246;21.054;2023-05-22T08:14:57;100939.13;;;36.56;17.29
30897;BME280;64229;52.246;21.054;2023-05-22T08:17:22;100945.75;;;35.72;18.06
30897;BME280;64229;52.246;21.054;2023-05-22T08:19:47;100942.41;;;35.84;18.21
30897;BME280;64229;52.246;21.054;2023-05-22T08:22:13;100934.63;;;35.72;17.87
30897;BME280;64229;52.246;21.054;2023-05-22T08:24:38;100934.81;;;35.88;17.99
30897;BME280;64229;52.246;21.054;2023-05-22T08:27:03;100928.94;;;36.89;17.02
30897;BME280;64229;52.246;21.054;2023-05-22T08:29:29;100920.88;;;37.31;16.38
30897;BME280;64229;52.246;21.054;2023-05-22T08:31:55;100929.81;;;36.86;16.14
30897;BME280;64229;52.246;21.054;2023-05-22T08:34:22;100928.72;;;34.89;18.11
30897;BME280;64229;52.246;21.054;2023-05-22T08:36:48;100931.09;;;32.90;20.38
30897;BME280;64229;52.246;21.054;2023-05-22T08:39:14;100926.13;;;32.14;20.94
30897;BME280;64229;52.246;21.054;2023-05-22T08:41:39;100917.88;;;30.63;23.07
30897;BME280;64229;52.246;21.054;2023-05-22T08:44:07;100930.50;;;29.31;23.64
30897;BME280;64229;52.246;21.054;2023-05-22T08:46:33;100916.84;;;27.95;24.72
30897;BME280;64229;52.246;21.054;2023-05-22T08:49:03;100918.03;;;28.20;24.46
30897;BME280;64229;52.246;21.054;2023-05-22T08:51:32;100917.78;;;28.56;24.60
30897;BME280;64229;52.246;21.054;2023-05-22T08:53:58;100920.06;;;29.10;24.33
30897;BME280;64229;52.246;21.054;2023-05-22T08:56:25;100901.41;;;30.73;22.32
30897;BME280;64229;52.246;21.054;2023-05-22T08:58:50;100919.81;;;31.78;20.36
30897;BME280;64229;52.246;21.054;2023-05-22T09:01:17;100916.19;;;32.48;18.74
30897;BME280;64229;52.246;21.054;2023-05-22T09:03:42;100909.88;;;32.48;18.76
30897;BME280;64229;52.246;21.054;2023-05-22T09:06:09;100907.53;;;32.46;19.78
30897;BME280;64229;52.246;21.054;2023-05-22T09:08:36;100913.47;;;31.74;19.69
30897;BME280;64229;52.246;21.054;2023-05-22T09:11:01;100904.44;;;30.58;20.52
30897;BME280;64229;52.246;21.054;2023-05-22T09:13:30;100918.56;;;29.94;21.04
30897;BME280;64229;52.246;21.054;2023-05-22T09:16:10;100900.19;;;28.60;22.58
30897;BME280;64229;52.246;21.054;2023-05-22T09:18:39;100895.91;;;27.64;24.09
30897;BME280;64229;52.246;21.054;2023-05-22T09:21:09;100901.00;;;26.81;25.87
30897;BME280;64229;52.246;21.054;2023-05-22T09:23:34;100898.53;;;26.25;25.25
30897;BME280;64229;52.246;21.054;2023-05-22T09:26:01;100889.72;;;25.68;25.70
30897;BME280;64229;52.246;21.054;2023-05-22T09:28:32;100896.88;;;25.14;25.15
30897;BME280;64229;52.246;21.054;2023-05-22T09:30:59;100888.84;;;24.93;25.98
30897;BME280;64229;52.246;21.054;2023-05-22T09:33:25;100888.75;;;24.89;25.76
30897;BME280;64229;52.246;21.054;2023-05-22T09:35:53;100892.59;;;25.00;25.23
30897;BME280;64229;52.246;21.054;2023-05-22T09:38:21;100884.28;;;24.97;25.49
30897;BME280;64229;52.246;21.054;2023-05-22T09:40:52;100883.38;;;24.93;25.39
30897;BME280;64229;52.246;21.054;2023-05-22T09:43:22;100892.47;;;24.69;26.12
30897;BME280;64229;52.246;21.054;2023-05-22T09:45:55;100890.34;;;24.26;26.60
30897;BME280;64229;52.246;21.054;2023-05-22T09:48:20;100878.63;;;24.01;26.68
30897;BME280;64229;52.246;21.054;2023-05-22T09:50:46;100882.84;;;23.98;27.31
30897;BME280;64229;52.246;21.054;2023-05-22T09:53:16;100864.91;;;23.85;27.11
30897;BME280;64229;52.246;21.054;2023-05-22T09:55:46;100858.63;;;24.21;26.56
30897;BME280;64229;52.246;21.054;2023-05-22T09:58:12;100844.16;;;24.45;25.74
30897;BME280;64229;52.246;21.054;2023-05-22T10:00:41;100860.50;;;25.25;25.57
30897;BME280;64229;52.246;21.054;2023-05-22T10:03:10;100873.00;;;25.70;24.77
30897;BME280;64229;52.246;21.054;2023-05-22T10:05:42;100871.81;;;25.39;25.15
30897;BME280;64229;52.246;21.054;2023-05-22T10:08:14;100859.16;;;24.91;25.60
30897;BME280;64229;52.246;21.054;2023-05-22T10:10:42;100882.88;;;24.75;26.63
30897;BME280;64229;52.246;21.054;2023-05-22T10:13:10;100874.09;;;24.17;28.13
30897;BME280;64229;52.246;21.054;2023-05-22T10:15:36;100878.72;;;23.67;28.69
30897;BME280;64229;52.246;21.054;2023-05-22T10:18:02;100862.88;;;23.49;27.29
30897;BME280;64229;52.246;21.054;2023-05-22T10:20:28;100862.47;;;23.26;27.89
30897;BME280;64229;52.246;21.054;2023-05-22T10:22:54;100865.06;;;23.10;28.79
30897;BME280;64229;52.246;21.054;2023-05-22T10:25:20;100866.31;;;23.13;29.49
30897;BME280;64229;52.246;21.054;2023-05-22T10:27:47;100866.97;;;23.43;29.70
30897;BME280;64229;52.246;21.054;2023-05-22T10:33:08;100868.81;;;23.51;30.34
30897;BME280;64229;52.246;21.054;2023-05-22T10:41:00;100850.56;;;23.63;30.82
30897;BME280;64229;52.246;21.054;2023-05-22T10:43:29;100865.00;;;23.76;31.25
30897;BME280;64229;52.246;21.054;2023-05-22T10:46:03;100860.56;;;23.96;30.63
30897;BME280;64229;52.246;21.054;2023-05-22T10:48:36;100859.78;;;24.08;31.15
30897;BME280;64229;52.246;21.054;2023-05-22T10:51:01;100856.50;;;24.14;30.41
30897;BME280;64229;52.246;21.054;2023-05-22T10:53:30;100854.09;;;24.13;30.77
30897;BME280;64229;52.246;21.054;2023-05-22T10:55:57;100851.69;;;24.11;31.30
30897;BME280;64229;52.246;21.054;2023-05-22T10:58:28;100855.69;;;24.14;31.20
30897;BME280;64229;52.246;21.054;2023-05-22T11:01:13;100844.88;;;24.17;31.07
30897;BME280;64229;52.246;21.054;2023-05-22T11:06:38;100848.16;;;24.47;30.45
30897;BME280;64229;52.246;21.054;2023-05-22T11:09:30;100849.59;;;24.69;30.08
30897;BME280;64229;52.246;21.054;2023-05-22T11:12:26;100801.78;;;24.47;29.00
30897;BME280;64229;52.246;21.054;2023-05-22T11:14:57;100844.78;;;24.78;29.35
30897;BME280;64229;52.246;21.054;2023-05-22T11:19:58;100836.25;;;24.28;27.79
30897;BME280;64229;52.246;21.054;2023-05-22T11:22:41;100828.75;;;24.37;28.43
30897;BME280;64229;52.246;21.054;2023-05-22T11:25:16;100802.81;;;24.43;28.67
30897;BME280;64229;52.246;21.054;2023-05-22T11:27:43;100828.97;;;24.72;28.93
30897;BME280;64229;52.246;21.054;2023-05-22T11:30:09;100816.13;;;24.72;28.51
30897;BME280;64229;52.246;21.054;2023-05-22T11:32:36;100821.63;;;24.88;27.67
30897;BME280;64229;52.246;21.054;2023-05-22T11:35:02;100818.88;;;24.88;28.36
30897;BME280;64229;52.246;21.054;2023-05-22T11:37:30;100816.91;;;24.73;27.73
30897;BME280;64229;52.246;21.054;2023-05-22T11:39:57;100815.47;;;24.63;27.63
30897;BME280;64229;52.246;21.054;2023-05-22T11:42:23;100819.84;;;24.52;28.47
30897;BME280;64229;52.246;21.054;2023-05-22T11:44:49;100815.22;;;24.40;27.89
30897;BME280;64229;52.246;21.054;2023-05-22T11:47:14;100810.47;;;24.01;28.38
30897;BME280;64229;52.246;21.054;2023-05-22T11:49:40;100813.09;;;23.85;28.94
30897;BME280;64229;52.246;21.054;2023-05-22T11:52:07;100796.75;;;23.73;29.59
30897;BME280;64229;52.246;21.054;2023-05-22T11:54:32;100807.41;;;24.02;28.63
30897;BME280;64229;52.246;21.054;2023-05-22T11:56:57;100809.22;;;24.10;27.98
30897;BME280;64229;52.246;21.054;2023-05-22T11:59:23;100809.66;;;24.24;28.03
30897;BME280;64229;52.246;21.054;2023-05-22T12:01:51;100800.34;;;24.38;27.09
30897;BME280;64229;52.246;21.054;2023-05-22T12:04:17;100802.09;;;24.58;27.71
30897;BME280;64229;52.246;21.054;2023-05-22T12:06:43;100789.81;;;24.52;27.68
30897;BME280;64229;52.246;21.054;2023-05-22T12:09:08;100796.38;;;24.35;27.55
30897;BME280;64229;52.246;21.054;2023-05-22T12:11:34;100797.06;;;24.08;28.02
30897;BME280;64229;52.246;21.054;2023-05-22T12:14:01;100769.38;;;23.93;28.47
30897;BME280;64229;52.246;21.054;2023-05-22T12:16:27;100793.88;;;24.06;28.94
30897;BME280;64229;52.246;21.054;2023-05-22T12:18:52;100787.75;;;23.97;28.71
30897;BME280;64229;52.246;21.054;2023-05-22T12:21:19;100764.16;;;23.76;29.09
30897;BME280;64229;52.246;21.054;2023-05-22T12:23:49;100766.16;;;23.91;29.19
30897;BME280;64229;52.246;21.054;2023-05-22T12:26:15;100781.28;;;24.01;29.19
30897;BME280;64229;52.246;21.054;2023-05-22T12:28:41;100784.25;;;23.84;28.84
30897;BME280;64229;52.246;21.054;2023-05-22T12:31:06;100784.47;;;23.79;29.35
30897;BME280;64229;52.246;21.054;2023-05-22T12:33:32;100784.13;;;23.68;29.71
30897;BME280;64229;52.246;21.054;2023-05-22T12:35:57;100748.13;;;23.38;30.17
30897;BME280;64229;52.246;21.054;2023-05-22T12:38:28;100777.63;;;23.48;29.78
30897;BME280;64229;52.246;21.054;2023-05-22T12:40:54;100770.69;;;23.38;29.95
30897;BME280;64229;52.246;21.054;2023-05-22T12:43:21;100768.09;;;23.30;30.33
30897;BME280;64229;52.246;21.054;2023-05-22T12:45:47;100772.59;;;23.14;29.88
30897;BME280;64229;52.246;21.054;2023-05-22T12:48:13;100770.19;;;23.00;29.83
30897;BME280;64229;52.246;21.054;2023-05-22T12:50:39;100770.31;;;22.83;30.28
30897;BME280;64229;52.246;21.054;2023-05-22T12:53:05;100763.44;;;22.85;30.64
30897;BME280;64229;52.246;21.054;2023-05-22T12:55:31;100753.97;;;23.03;30.22
30897;BME280;64229;52.246;21.054;2023-05-22T12:57:56;100735.72;;;23.04;30.65
30897;BME280;64229;52.246;21.054;2023-05-22T13:00:22;100766.03;;;23.39;30.53
30897;BME280;64229;52.246;21.054;2023-05-22T13:02:47;100766.31;;;23.58;29.87